»·PEaware :: AAL394 KTUL-KDFW

AAL394 :: KTUL-KDFW

FLIGHT INFORMATION

Flight Status: Arrived
Operator:
American Airlines
More flights by this operator :: More flights under this callsign
Pilot: John H. (7647)
Aircraft: BOEING 737-800
(B738)
More flights by this aircraft type
Origin: KTUL Tulsa Intl
United States
Destination: KDFW Dallas-Ft Worth Intl
United States
More flights between these airports :: More routes between these airports
Route: PEJAY AXXEE BRDJE3
File this flight plan on PilotEdge
Remarks: PBN / A1B1C1D1S1S2 DOF / 180927 REG / N806SB EET / KZFW0006 OPR / AAL PER / C RMK / TCAS SIMBRIEF
Altitude:
(Current/Filed)
26,000ft
Speed:
(Current/Filed)
463kts
Departed: 26-Sep-18 04:48 PM
Arrived: 26-Sep-18 05:41 PM
Distance/Time
Traveled:
207nm/0:53
Distance/Time
To Go:
Arrived

Flight Plot

Page will automatically refresh every two minutes.

Flight plan parsing failed; only flown route is shown


Map Options




Map Legend


Flown Route
Filed Route
Departure Airport
Arrival Airport
Navaid (VOR, NDB)
Fix

Horizontal Profiles

Position Reports

Time Latitude Longitude Heading Altitude Ground
Speed
26-Sep-18 16:40 36.190543 -95.886548 311 654ft 0kts
26-Sep-18 16:41 36.190543 -95.886548 311 654ft 0kts
26-Sep-18 16:42 36.190543 -95.886548 311 654ft 0kts
26-Sep-18 16:43 36.190543 -95.886548 311 654ft 0kts
26-Sep-18 16:44 36.190519 -95.886513 309 654ft 0kts
26-Sep-18 16:45 36.190360 -95.885959 266 652ft 2kts
26-Sep-18 16:46 36.190584 -95.885407 219 651ft 1kts
26-Sep-18 16:47 36.190598 -95.885392 220 651ft 0kts
26-Sep-18 16:48 36.189464 -95.885715 183 652ft 10kts
26-Sep-18 16:49 36.190002 -95.882893 2 647ft 26kts
26-Sep-18 16:50 36.218934 -95.881932 359 1224ft 156kts
26-Sep-18 16:51 36.262270 -95.877824 45 3060ft 157kts
26-Sep-18 16:52 36.237681 -95.847001 191 3705ft 219kts
26-Sep-18 16:53 36.172542 -95.868155 188 4665ft 271kts
26-Sep-18 16:54 36.100940 -95.844568 159 7213ft 279kts
26-Sep-18 16:55 36.028537 -95.812500 157 9885ft 278kts
26-Sep-18 16:56 35.953343 -95.779022 161 11717ft 304kts
26-Sep-18 16:57 35.875261 -95.744469 162 13739ft 315kts
26-Sep-18 16:58 35.793027 -95.708187 162 15713ft 325kts
26-Sep-18 16:59 35.708572 -95.671012 162 17525ft 335kts
26-Sep-18 17:00 35.632089 -95.649490 186 18968ft 337kts
26-Sep-18 17:01 35.522681 -95.668765 189 20828ft 348kts
26-Sep-18 17:02 35.443031 -95.683264 189 22056ft 355kts
26-Sep-18 17:03 35.345049 -95.700913 189 23431ft 363kts
26-Sep-18 17:04 35.244662 -95.718898 189 24711ft 371kts
26-Sep-18 17:05 35.142602 -95.737065 190 25906ft 377kts
26-Sep-18 17:06 35.037922 -95.755710 190 26187ft 396kts
26-Sep-18 17:07 34.927344 -95.775334 190 26186ft 418kts
26-Sep-18 17:08 34.814399 -95.795256 190 26185ft 421kts
26-Sep-18 17:09 34.699625 -95.815457 190 26185ft 420kts
26-Sep-18 17:10 34.584937 -95.835584 190 26186ft 420kts
26-Sep-18 17:11 34.470484 -95.855596 190 26180ft 420kts
26-Sep-18 17:12 34.355768 -95.875613 190 26183ft 419kts
26-Sep-18 17:13 34.245367 -95.913313 201 26181ft 416kts
26-Sep-18 17:14 34.137656 -95.960982 201 26154ft 415kts
26-Sep-18 17:15 34.029937 -96.008091 201 26167ft 415kts
26-Sep-18 17:16 33.923816 -96.054263 201 26154ft 415kts
26-Sep-18 17:17 33.826479 -96.096441 201 26157ft 415kts
26-Sep-18 17:18 33.720250 -96.141672 201 26156ft 405kts
26-Sep-18 17:19 33.614260 -96.186577 201 26157ft 405kts
26-Sep-18 17:20 33.510268 -96.230618 201 24404ft 391kts
26-Sep-18 17:21 33.420116 -96.293004 227 22061ft 374kts
26-Sep-18 17:22 33.353884 -96.384093 228 19822ft 357kts
26-Sep-18 17:23 33.292815 -96.469172 228 17676ft 332kts
26-Sep-18 17:24 33.233067 -96.550212 226 16107ft 316kts
26-Sep-18 17:25 33.175608 -96.626161 227 14905ft 314kts
26-Sep-18 17:26 33.122108 -96.699437 226 13899ft 298kts
26-Sep-18 17:27 33.070297 -96.770417 226 12947ft 286kts
26-Sep-18 17:28 33.019480 -96.839373 226 11924ft 278kts
26-Sep-18 17:29 32.967355 -96.899923 199 10959ft 249kts
26-Sep-18 17:30 32.901079 -96.909124 182 10251ft 245kts
26-Sep-18 17:31 32.838912 -96.913487 182 9599ft 242kts
26-Sep-18 17:32 32.772001 -96.917201 177 8895ft 245kts
26-Sep-18 17:33 32.705766 -96.916805 176 8202ft 249kts
26-Sep-18 17:34 32.635503 -96.916478 178 7458ft 262kts
26-Sep-18 17:35 32.564898 -96.916558 192 6964ft 244kts
26-Sep-18 17:36 32.558383 -96.975193 305 7113ft 220kts
26-Sep-18 17:37 32.597978 -97.029173 340 6056ft 227kts
26-Sep-18 17:38 32.660236 -97.031479 0 4770ft 224kts
26-Sep-18 17:39 32.720514 -97.030922 359 3611ft 221kts
26-Sep-18 17:40 32.780578 -97.030614 359 2468ft 207kts
26-Sep-18 17:41 32.831588 -97.030329 359 1466ft 152kts
26-Sep-18 17:42 32.869255 -97.030176 358 744ft 129kts
26-Sep-18 17:43 32.877948 -97.030137 348 556ft 0kts

Navigation Log

Ident Type
Flight plan parsing failed, navigation log unavailable